الصفحة الرئيسية
METAR-TAF:

METAR-TAF

مطار :

باكيي, أريزونا, الولايات المتحدة

دائرة عرض: 33-25-14N, خط طول: 112-41-10W, ارتفاع: 315 متر

مراقبة الطقس الحالي

تاريخ ووقت الإصدار 9 دقيقة قبل الساعة 09:15UTC
ريح 8 عقدة من الشرق/الجنوب الشرقي
درجة الحرارة 26°درجة مئوية
الرطوبة 24%
ضغط 1015 hPa
الرؤية: 16.1 كم

METAR: KBXK 290915Z AUTO 11008KT 10SM 26/04 A2996 RMK A01

زمن: 02:24 (09:24 UTC)


TAF: مفقودة

أرصاد الطقس والتوقعات من أكثر من 4000 مطار (تقارير الطقس للمطار METAR والتنبؤ بالطقس بالمطارTAF).

المحطات المتاحة هي النقط الصفراء والحمراء على الخريطة.

حرك المؤشر فوق النقطة لمعرفة اسم المحطة.

ثم انقر لمعرفة أرصاد وتوقعات الطقس.

لتغيير الخارطة: اضغط على الأزرار الخضراء مع رمز الصليب الأسود للتكبير. على الزر الأخضر مع شرطة للتصغير، أو على الأسهم الخضراء للخرائط المجاورة.


METAR-TAF: